createdAt,value
2023-04-09T00:02:47.259Z,9.43
2023-04-09T00:06:47.500Z,8.70
2023-04-09T00:10:47.996Z,9.13
2023-04-09T00:14:48.199Z,7.80
2023-04-09T00:18:52.058Z,9.53
2023-04-09T00:22:52.674Z,8.50
2023-04-09T00:26:53.664Z,10.73
2023-04-09T00:30:53.813Z,8.90
2023-04-09T00:34:56.925Z,10.27
2023-04-09T00:38:57.216Z,10.23
2023-04-09T00:42:57.438Z,10.47
2023-04-09T00:46:58.397Z,8.70
2023-04-09T00:51:01.210Z,10.53
2023-04-09T00:55:04.495Z,11.97
2023-04-09T00:59:05.667Z,11.27
2023-04-09T01:03:09.238Z,10.47
2023-04-09T01:07:23.647Z,10.87
2023-04-09T01:11:34.955Z,11.23
2023-04-09T01:15:42.177Z,11.37
2023-04-09T01:19:54.078Z,11.10
2023-04-09T01:24:12.826Z,13.57
2023-04-09T01:28:26.021Z,14.47
2023-04-09T01:32:32.571Z,13.63
2023-04-09T01:36:36.384Z,17.30
2023-04-09T01:40:36.768Z,15.60
2023-04-09T01:44:42.161Z,15.57
2023-04-09T01:48:43.217Z,16.07
2023-04-09T01:52:43.913Z,14.80
2023-04-09T01:56:45.739Z,17.70
2023-04-09T02:00:52.298Z,16.60
2023-04-09T02:04:58.799Z,16.10
2023-04-09T02:09:04.238Z,13.47
2023-04-09T02:13:08.680Z,14.37
2023-04-09T02:17:12.076Z,17.67
2023-04-09T02:21:14.135Z,16.27
2023-04-09T02:25:14.863Z,18.43
2023-04-09T02:29:15.128Z,16.20
2023-04-09T02:33:18.122Z,17.87
2023-04-09T02:37:18.475Z,18.57
2023-04-09T02:41:19.959Z,17.97
2023-04-09T02:45:20.287Z,15.97
2023-04-09T02:49:23.407Z,17.47
2023-04-09T02:53:24.348Z,20.27
2023-04-09T02:57:24.539Z,21.63
2023-04-09T03:01:24.865Z,17.77
2023-04-09T03:05:28.042Z,17.43
2023-04-09T03:09:29.161Z,14.90
2023-04-09T03:13:31.064Z,17.77
2023-04-09T03:17:32.232Z,15.97
2023-04-09T03:21:34.976Z,18.47
2023-04-09T03:25:35.902Z,19.00
2023-04-09T03:29:44.428Z,19.20
2023-04-09T03:33:44.826Z,14.90
2023-04-09T03:37:48.141Z,17.13
2023-04-09T03:41:51.595Z,15.80
2023-04-09T03:45:52.413Z,20.23
2023-04-09T03:49:56.783Z,15.73
2023-04-09T03:54:03.256Z,15.70
2023-04-09T03:58:04.327Z,18.53
2023-04-09T04:02:07.844Z,15.80
2023-04-09T04:06:12.683Z,18.80
2023-04-09T04:10:33.985Z,15.07
2023-04-09T04:14:34.693Z,16.47
2023-04-09T04:18:41.817Z,18.63
2023-04-09T04:22:42.432Z,20.30
2023-04-09T04:26:45.949Z,22.87
2023-04-09T04:30:50.446Z,18.60
2023-04-09T04:34:52.786Z,17.87
2023-04-09T04:39:00.010Z,17.60
2023-04-09T04:43:20.446Z,17.37
2023-04-09T04:47:22.286Z,17.43
2023-04-09T04:51:22.601Z,22.93
2023-04-09T04:55:39.715Z,16.40
2023-04-09T04:59:44.363Z,18.13
2023-04-09T05:03:46.759Z,17.83
2023-04-09T05:08:00.650Z,17.00
2023-04-09T05:12:01.465Z,15.53
2023-04-09T05:16:04.524Z,15.30
2023-04-09T05:20:07.645Z,15.83
2023-04-09T05:24:18.808Z,16.77
2023-04-09T05:28:19.473Z,17.60
2023-04-09T05:32:28.053Z,18.60
2023-04-09T05:36:29.418Z,23.23
2023-04-09T05:40:29.873Z,20.43
2023-04-09T05:44:30.409Z,29.23
2023-04-09T05:48:41.670Z,25.13
2023-04-09T05:52:41.984Z,22.97
2023-04-09T05:56:45.772Z,19.97
2023-04-09T06:00:46.241Z,20.13
2023-04-09T06:04:52.170Z,19.13
2023-04-09T06:08:52.380Z,18.33
2023-04-09T06:12:52.608Z,19.23
2023-04-09T06:16:52.767Z,20.67
2023-04-09T06:21:05.779Z,22.27
2023-04-09T06:25:06.824Z,22.30
2023-04-09T06:29:07.171Z,22.23
2023-04-09T06:33:07.420Z,24.10
2023-04-09T06:37:10.357Z,24.80
2023-04-09T06:41:12.922Z,25.80
2023-04-09T06:45:13.860Z,23.23
2023-04-09T06:49:13.980Z,25.03
2023-04-09T06:53:18.490Z,27.47
2023-04-09T06:57:18.711Z,27.07
2023-04-09T07:01:20.094Z,32.10
2023-04-09T07:05:20.485Z,26.63
2023-04-09T07:09:23.258Z,29.20
2023-04-09T07:13:23.570Z,28.17
2023-04-09T07:17:23.765Z,28.93
2023-04-09T07:21:23.910Z,29.07
2023-04-09T07:25:27.047Z,27.53
2023-04-09T07:29:27.623Z,30.10
2023-04-09T07:33:27.890Z,29.30
2023-04-09T07:37:29.004Z,30.93
2023-04-09T07:41:31.858Z,25.60
2023-04-09T07:45:32.121Z,26.57
2023-04-09T07:49:32.463Z,27.57
2023-04-09T07:53:32.609Z,29.37
2023-04-09T07:57:37.128Z,25.57
2023-04-09T08:01:39.838Z,26.47
2023-04-09T08:05:40.893Z,26.07
2023-04-09T08:09:41.226Z,26.33
2023-04-09T08:13:44.231Z,27.17
2023-04-09T08:17:44.594Z,22.73
2023-04-09T08:21:46.774Z,24.33
2023-04-09T08:25:47.012Z,21.07
2023-04-09T08:29:49.915Z,22.02
2023-04-09T08:33:50.131Z,22.05
2023-04-09T08:37:50.857Z,21.50
2023-04-09T08:41:51.302Z,20.83
2023-04-09T08:45:57.986Z,20.48
2023-04-09T08:49:58.264Z,20.42
2023-04-09T08:54:03.249Z,17.20
2023-04-09T08:58:07.527Z,18.73
2023-04-09T09:02:14.345Z,17.08
2023-04-09T09:06:25.246Z,19.08
2023-04-09T09:10:42.160Z,15.02
2023-04-09T09:14:42.425Z,16.70
2023-04-09T09:18:48.364Z,16.98
2023-04-09T09:22:56.859Z,14.63
2023-04-09T09:26:59.051Z,15.05
2023-04-09T09:31:12.171Z,15.27
2023-04-09T09:35:15.581Z,15.15
2023-04-09T09:39:17.891Z,15.20
2023-04-09T09:43:18.472Z,14.65
2023-04-09T09:47:21.757Z,11.10
2023-04-09T09:51:31.383Z,12.57
2023-04-09T09:55:35.132Z,11.00
2023-04-09T09:59:43.597Z,11.75
2023-04-09T10:03:48.457Z,11.02
2023-04-09T10:07:52.206Z,12.10
2023-04-09T10:11:52.877Z,11.82
2023-04-09T10:15:54.288Z,9.80
2023-04-09T10:20:04.484Z,10.95
2023-04-09T10:24:09.486Z,9.35
2023-04-09T10:28:21.090Z,9.90
2023-04-09T10:32:28.591Z,8.52
2023-04-09T10:36:29.462Z,11.07
2023-04-09T10:40:32.812Z,10.05
2023-04-09T10:44:36.220Z,11.82
2023-04-09T10:48:37.413Z,10.75
2023-04-09T10:52:37.624Z,9.10
2023-04-09T10:56:40.444Z,9.70
2023-04-09T11:00:43.662Z,10.65
2023-04-09T11:05:02.526Z,10.45
2023-04-09T11:09:05.351Z,10.65
2023-04-09T11:13:08.815Z,12.65
2023-04-09T11:17:09.376Z,11.18
2023-04-09T11:21:10.475Z,12.00
2023-04-09T11:25:11.689Z,12.40
2023-04-09T11:29:14.504Z,13.73
2023-04-09T11:33:15.621Z,11.38
2023-04-09T11:37:19.067Z,11.93
2023-04-09T11:41:19.261Z,12.13
2023-04-09T11:45:23.846Z,12.25
2023-04-09T11:49:25.215Z,12.20
2023-04-09T11:53:26.597Z,12.02
2023-04-09T11:57:26.736Z,10.40
2023-04-09T12:01:34.894Z,11.80
2023-04-09T12:05:40.611Z,10.85
2023-04-09T12:09:51.406Z,11.75
2023-04-09T12:13:51.576Z,11.68
2023-04-09T12:17:58.601Z,12.20
2023-04-09T12:21:59.627Z,11.05
2023-04-09T12:26:02.488Z,12.25
2023-04-09T12:30:02.841Z,11.40
2023-04-09T12:34:05.668Z,11.75
2023-04-09T12:38:05.937Z,12.15
2023-04-09T12:42:06.495Z,11.32
2023-04-09T12:46:07.234Z,11.73
2023-04-09T12:50:13.173Z,12.27
2023-04-09T12:54:13.376Z,13.07
2023-04-09T12:58:13.594Z,12.38
2023-04-09T13:02:15.366Z,11.25
2023-04-09T13:06:18.216Z,10.68
2023-04-09T13:10:18.589Z,10.65
2023-04-09T13:14:18.760Z,10.38
2023-04-09T13:18:18.898Z,10.05
2023-04-09T13:22:21.976Z,11.43
2023-04-09T13:26:22.115Z,8.93
2023-04-09T13:30:24.741Z,8.43
2023-04-09T13:34:25.072Z,9.38
2023-04-09T13:38:27.975Z,9.63
2023-04-09T13:42:28.152Z,9.68
2023-04-09T13:46:28.399Z,10.27
2023-04-09T13:50:28.875Z,11.55
2023-04-09T13:54:31.721Z,8.98
2023-04-09T13:58:31.840Z,10.02
2023-04-09T14:02:32.305Z,12.20
2023-04-09T14:06:32.732Z,11.10
2023-04-09T14:10:36.110Z,10.77
2023-04-09T14:14:36.217Z,10.40
2023-04-09T14:18:36.583Z,11.10
2023-04-09T14:22:36.798Z,10.55
2023-04-09T14:26:39.644Z,11.02
2023-04-09T14:30:39.864Z,10.13
2023-04-09T14:34:40.173Z,9.90
2023-04-09T14:38:40.929Z,8.77
2023-04-09T14:42:44.558Z,9.38
2023-04-09T14:46:45.670Z,10.73
2023-04-09T14:50:46.764Z,9.10
2023-04-09T14:54:47.377Z,8.95
2023-04-09T14:58:51.123Z,8.10
2023-04-09T15:02:51.728Z,9.43
2023-04-09T15:06:52.424Z,9.95
2023-04-09T15:10:52.635Z,9.20
2023-04-09T15:14:55.824Z,8.85
2023-04-09T15:18:58.998Z,9.82
2023-04-09T15:22:59.231Z,10.20
2023-04-09T15:26:59.705Z,9.93
2023-04-09T15:31:02.713Z,10.38
2023-04-09T15:35:02.962Z,9.07
2023-04-09T15:39:03.815Z,9.93
2023-04-09T15:43:05.311Z,8.48
2023-04-09T15:47:11.502Z,15.48
2023-04-09T15:51:13.890Z,14.40
2023-04-09T15:55:14.980Z,12.40
2023-04-09T15:59:17.929Z,11.70
2023-04-09T16:03:22.267Z,15.10
2023-04-09T16:07:22.919Z,14.23
2023-04-09T16:11:23.179Z,12.93
2023-04-09T16:15:26.005Z,16.97
2023-04-09T16:19:28.918Z,12.07
2023-04-09T16:23:30.931Z,12.63
2023-04-09T16:27:31.076Z,10.93
2023-04-09T16:31:31.260Z,10.90
2023-04-09T16:35:34.018Z,11.53
2023-04-09T16:39:34.474Z,10.43
2023-04-09T16:43:34.684Z,11.73
2023-04-09T16:47:35.075Z,13.48
2023-04-09T16:51:38.440Z,12.90
2023-04-09T16:55:38.964Z,11.40
2023-04-09T16:59:40.936Z,11.33
2023-04-09T17:03:41.603Z,10.27
2023-04-09T17:07:44.800Z,14.33
2023-04-09T17:11:44.939Z,15.10
2023-04-09T17:15:45.097Z,13.97
2023-04-09T17:19:45.326Z,11.23
2023-04-09T17:23:48.009Z,12.27
2023-04-09T17:27:48.152Z,11.03
2023-04-09T17:31:48.990Z,11.90
2023-04-09T17:35:53.236Z,12.03
2023-04-09T17:40:07.558Z,12.70
2023-04-09T17:44:11.055Z,11.90
2023-04-09T17:48:17.321Z,11.23
2023-04-09T17:52:17.877Z,14.07
2023-04-09T17:56:22.888Z,14.27
2023-04-09T18:00:23.429Z,17.93
2023-04-09T18:04:24.520Z,16.80
2023-04-09T18:08:25.471Z,14.53
2023-04-09T18:12:28.808Z,15.33
2023-04-09T18:16:30.551Z,22.47
2023-04-09T18:20:35.676Z,20.53
2023-04-09T18:24:42.400Z,20.60
2023-04-09T18:28:47.644Z,30.90
2023-04-09T18:32:52.037Z,28.67
2023-04-09T18:36:59.206Z,22.50
2023-04-09T18:41:04.517Z,47.47
2023-04-09T18:45:12.787Z,33.53
2023-04-09T18:49:18.235Z,30.70
2023-04-09T18:53:26.923Z,26.57
2023-04-09T18:57:38.230Z,22.77
2023-04-09T19:01:45.929Z,33.87
2023-04-09T19:05:46.870Z,27.47
2023-04-09T19:09:56.728Z,30.10
2023-04-09T19:13:59.950Z,26.13
2023-04-09T19:18:04.535Z,23.77
2023-04-09T19:22:05.412Z,25.83
2023-04-09T19:26:09.189Z,26.47
2023-04-09T19:30:13.572Z,32.80
2023-04-09T19:34:17.103Z,32.73
2023-04-09T19:38:18.406Z,32.63
2023-04-09T19:42:19.284Z,34.23
2023-04-09T19:46:20.019Z,33.07
2023-04-09T19:50:23.705Z,33.50
2023-04-09T19:54:25.330Z,30.93
2023-04-09T19:58:26.583Z,35.03
2023-04-09T20:02:28.830Z,31.43
2023-04-09T20:06:32.284Z,31.10
2023-04-09T20:10:35.596Z,26.77
2023-04-09T20:14:38.369Z,28.53
2023-04-09T20:18:39.251Z,28.07
2023-04-09T20:22:48.001Z,35.13
2023-04-09T20:26:50.248Z,44.43
2023-04-09T20:30:59.760Z,44.40
2023-04-09T20:35:00.332Z,37.20
2023-04-09T20:39:05.338Z,31.07
2023-04-09T20:43:09.150Z,32.17
2023-04-09T20:47:12.120Z,26.30
2023-04-09T20:51:19.328Z,32.10
2023-04-09T20:55:22.903Z,30.57
2023-04-09T20:59:25.250Z,28.47
2023-04-09T21:03:25.794Z,34.00
2023-04-09T21:07:27.594Z,31.10
2023-04-09T21:11:31.410Z,28.47
2023-04-09T21:15:32.195Z,43.10
2023-04-09T21:19:33.903Z,30.93
2023-04-09T21:23:35.626Z,27.87
2023-04-09T21:27:38.661Z,26.00
2023-04-09T21:31:39.783Z,23.83
2023-04-09T21:35:40.469Z,25.63
2023-04-09T21:39:41.608Z,21.37
2023-04-09T21:43:44.750Z,24.07
2023-04-09T21:47:45.803Z,29.67
2023-04-09T21:51:49.001Z,29.87
2023-04-09T21:55:49.715Z,30.17
2023-04-09T21:59:53.122Z,32.60
2023-04-09T22:03:53.638Z,34.60
2023-04-09T22:07:54.364Z,49.00
2023-04-09T22:11:55.013Z,47.50
2023-04-09T22:15:58.262Z,36.40
2023-04-09T22:19:58.851Z,34.67
2023-04-09T22:23:59.640Z,39.57
2023-04-09T22:28:00.348Z,45.13
2023-04-09T22:32:03.997Z,43.80
2023-04-09T22:36:04.390Z,43.97
2023-04-09T22:40:05.857Z,78.77
2023-04-09T22:44:06.906Z,69.37
2023-04-09T22:48:10.137Z,48.50
2023-04-09T22:52:11.582Z,27.63
2023-04-09T22:56:13.054Z,28.37
2023-04-09T23:00:15.112Z,24.43
2023-04-09T23:04:23.259Z,24.00
2023-04-09T23:08:23.911Z,25.33
2023-04-09T23:12:24.681Z,25.63
2023-04-09T23:16:25.589Z,24.33
2023-04-09T23:20:30.265Z,23.23
2023-04-09T23:24:31.201Z,23.33
2023-04-09T23:28:32.013Z,23.47
2023-04-09T23:32:32.671Z,25.00
2023-04-09T23:36:36.386Z,23.27
2023-04-09T23:40:36.757Z,22.90
2023-04-09T23:44:37.573Z,22.87
2023-04-09T23:48:38.007Z,23.80
2023-04-09T23:52:42.264Z,23.20
2023-04-09T23:56:44.281Z,23.13
